Weed Airport Atmospheric Data: 04/18/2019 Summary  Detailed Graphs  Station List

  Temperature     Wind Precipitation Visibility
Timestamp Air Wet
Bulb
Dew-
point
24-hr
Max
24-hr
Min
Relative
Humidity
Atmospheric
Pressure
Avg
Speed
Avg
Dir
Spot
Speed
Spot
Dir
Max
Speed
Max
Dir
  Rate Situation Start End 1 hr 3 hr 6 hr 12 hr 24 hr   Situation
Date Time °F °F °F °F °F % in Hg mph ° mph ° mph ° Y/N in/hr text Date Time Date Time in in in in in mi text
04/18/2019 12:00 AM 49.82 44.96 39.92 70.34 34.70 68.0 Not Reported 5.82 SE 4.92 S 8.50 SE No 0.000 No Precipitation 04/15/2019 04:18 PM 04/15/2019 04:23 PM 0.000 0.000 0.000 0.000 0.000 Not Reported Not Reported
04/18/2019 12:15 AM 49.82 45.14 40.10 70.34 34.70 69.0 Not Reported 7.38 SE 7.83 SE 7.83 S No 0.000 No Precipitation 04/15/2019 04:18 PM 04/15/2019 04:23 PM 0.000 0.000 0.000 0.000 0.000 Not Reported Not Reported
04/18/2019 12:30 AM 51.62 45.50 39.56 70.34 34.70 63.0 Not Reported 10.29 SE 11.18 S 11.86 SE No 0.000 No Precipitation 04/15/2019 04:18 PM 04/15/2019 04:23 PM 0.000 0.000 0.000 0.000 0.000 Not Reported Not Reported
04/18/2019 12:45 AM 50.36 45.14 39.56 70.34 34.70 66.0 Not Reported 8.28 SE 8.05 SE 11.63 SE No 0.000 No Precipitation 04/15/2019 04:18 PM 04/15/2019 04:23 PM 0.000 0.000 0.000 0.000 0.000 Not Reported Not Reported
04/18/2019 01:00 AM 49.46 44.60 39.20 70.34 34.70 67.0 Not Reported 7.83 SE 7.83 SE 8.72 S No 0.000 No Precipitation 04/15/2019 04:18 PM 04/15/2019 04:23 PM 0.000 0.000 0.000 0.000 0.000 Not Reported Not Reported
04/18/2019 01:15 AM 48.74 44.24 39.38 70.34 34.70 69.0 Not Reported 7.16 SE 7.38 S 9.40 SE No 0.000 No Precipitation 04/15/2019 04:18 PM 04/15/2019 04:23 PM 0.000 0.000 0.000 0.000 0.000 Not Reported Not Reported
04/18/2019 01:30 AM 48.56 44.06 39.38 70.34 34.70 70.0 Not Reported 8.95 SE 8.28 SE 10.74 SE No 0.000 No Precipitation 04/15/2019 04:18 PM 04/15/2019 04:23 PM 0.000 0.000 0.000 0.000 0.000 Not Reported Not Reported
04/18/2019 01:45 AM 50.18 44.78 39.20 70.34 34.70 65.0 Not Reported 9.40 SE 9.40 SE 9.84 SE No 0.000 No Precipitation 04/15/2019 04:18 PM 04/15/2019 04:23 PM 0.000 0.000 0.000 0.000 0.000 Not Reported Not Reported
04/18/2019 02:00 AM 49.82 44.60 39.02 70.34 34.70 66.0 Not Reported 8.28 SE 7.61 SE 9.62 SE No 0.000 No Precipitation 04/15/2019 04:18 PM 04/15/2019 04:23 PM 0.000 0.000 0.000 0.000 0.000 Not Reported Not Reported
04/18/2019 02:15 AM 50.54 44.96 39.02 70.34 34.70 64.0 Not Reported 9.62 SE 10.07 SE 8.72 SE No 0.000 No Precipitation 04/15/2019 04:18 PM 04/15/2019 04:23 PM 0.000 0.000 0.000 0.000 0.000 Not Reported Not Reported
04/18/2019 02:30 AM 49.10 44.06 38.66 70.34 34.70 67.0 Not Reported 8.50 SE 8.50 SE 9.17 S No 0.000 No Precipitation 04/15/2019 04:18 PM 04/15/2019 04:23 PM 0.000 0.000 0.000 0.000 0.000 Not Reported Not Reported
04/18/2019 02:45 AM 48.02 43.70 39.02 70.34 34.70 70.0 Not Reported 8.95 SE 8.95 SE 9.17 SE No 0.000 No Precipitation 04/15/2019 04:18 PM 04/15/2019 04:23 PM 0.000 0.000 0.000 0.000 0.000 Not Reported Not Reported
04/18/2019 03:00 AM 48.74 44.06 38.84 70.34 34.70 68.0 Not Reported 7.16 SE 6.93 SE 10.29 SE No 0.000 No Precipitation 04/15/2019 04:18 PM 04/15/2019 04:23 PM 0.000 0.000 0.000 0.000 0.000 Not Reported Not Reported
04/18/2019 03:15 AM 47.66 43.52 38.66 70.34 34.70 70.0 Not Reported 6.71 SE 7.16 SE 9.62 SE No 0.000 No Precipitation 04/15/2019 04:18 PM 04/15/2019 04:23 PM 0.000 0.000 0.000 0.000 0.000 Not Reported Not Reported
04/18/2019 03:30 AM 45.86 42.26 38.12 70.34 34.70 73.0 Not Reported 6.04 SE 6.26 SE 8.28 SE No 0.000 No Precipitation 04/15/2019 04:18 PM 04/15/2019 04:23 PM 0.000 0.000 0.000 0.000 0.000 Not Reported Not Reported
04/18/2019 03:45 AM 45.50 42.26 38.66 70.34 34.70 77.0 Not Reported 5.14 SE 4.03 SE 6.04 SE No 0.000 No Precipitation 04/15/2019 04:18 PM 04/15/2019 04:23 PM 0.000 0.000 0.000 0.000 0.000 Not Reported Not Reported
04/18/2019 04:00 AM 46.22 42.62 38.84 70.34 34.70 75.0 Not Reported 4.25 S 4.25 S 4.47 S No 0.000 No Precipitation 04/15/2019 04:18 PM 04/15/2019 04:23 PM 0.000 0.000 0.000 0.000 0.000 Not Reported Not Reported
04/18/2019 04:15 AM 45.32 42.08 38.66 70.34 34.70 77.0 Not Reported 6.49 S 6.93 S 6.93 S No 0.000 No Precipitation 04/15/2019 04:18 PM 04/15/2019 04:23 PM 0.000 0.000 0.000 0.000 0.000 Not Reported Not Reported
04/18/2019 04:30 AM 44.96 41.90 38.48 70.34 34.70 77.0 Not Reported 3.36 S 3.36 S 4.92 S No 0.000 No Precipitation 04/15/2019 04:18 PM 04/15/2019 04:23 PM 0.000 0.000 0.000 0.000 0.000 Not Reported Not Reported
04/18/2019 04:45 AM 44.78 41.90 38.66 70.34 34.70 78.0 Not Reported 2.91 SE 3.36 SE 3.58 SE No 0.000 No Precipitation 04/15/2019 04:18 PM 04/15/2019 04:23 PM 0.000 0.000 0.000 0.000 0.000 Not Reported Not Reported
04/18/2019 05:00 AM 43.70 41.18 38.48 70.34 34.70 81.0 Not Reported 3.36 S 2.68 S 5.59 SE No 0.000 No Precipitation 04/15/2019 04:18 PM 04/15/2019 04:23 PM 0.000 0.000 0.000 0.000 0.000 Not Reported Not Reported
04/18/2019 05:15 AM 43.34 41.00 38.30 70.34 34.70 82.0 Not Reported 2.68 SE 3.58 S 3.80 S No 0.000 No Precipitation 04/15/2019 04:18 PM 04/15/2019 04:23 PM 0.000 0.000 0.000 0.000 0.000 Not Reported Not Reported
04/18/2019 05:30 AM 43.16 40.82 38.12 70.34 34.70 82.0 Not Reported 4.92 SE 4.92 SE 5.14 S No 0.000 No Precipitation 04/15/2019 04:18 PM 04/15/2019 04:23 PM 0.000 0.000 0.000 0.000 0.000 Not Reported Not Reported
04/18/2019 05:45 AM 43.16 41.00 38.66 70.34 34.70 83.0 Not Reported 3.58 S 3.13 SE 4.92 S No 0.000 No Precipitation 04/15/2019 04:18 PM 04/15/2019 04:23 PM 0.000 0.000 0.000 0.000 0.000 Not Reported Not Reported
04/18/2019 06:00 AM 43.34 40.82 37.76 70.34 34.70 80.0 Not Reported 3.80 SE 2.01 SE 7.83 SE No 0.000 No Precipitation 04/15/2019 04:18 PM 04/15/2019 04:23 PM 0.000 0.000 0.000 0.000 0.000 Not Reported Not Reported
04/18/2019 06:15 AM 41.90 39.92 37.40 70.34 34.70 84.0 Not Reported 4.47 SE 4.47 SE 4.03 SE No 0.000 No Precipitation 04/15/2019 04:18 PM 04/15/2019 04:23 PM 0.000 0.000 0.000 0.000 0.000 Not Reported Not Reported
04/18/2019 06:30 AM 43.70 41.00 37.94 70.34 34.70 80.0 Not Reported 4.92 SE 5.14 SE 5.14 SE No 0.000 No Precipitation 04/15/2019 04:18 PM 04/15/2019 04:23 PM 0.000 0.000 0.000 0.000 0.000 Not Reported Not Reported
04/18/2019 06:45 AM 43.52 40.82 37.76 70.34 34.70 80.0 Not Reported 4.25 S 4.47 S 5.82 SE No 0.000 No Precipitation 04/15/2019 04:18 PM 04/15/2019 04:23 PM 0.000 0.000 0.000 0.000 0.000 Not Reported Not Reported
04/18/2019 07:00 AM 43.88 41.54 38.84 70.34 34.70 81.0 Not Reported 5.59 S 5.14 S 6.49 S No 0.000 No Precipitation 04/15/2019 04:18 PM 04/15/2019 04:23 PM 0.000 0.000 0.000 0.000 0.000 Not Reported Not Reported
04/18/2019 07:15 AM 42.26 40.10 37.40 70.34 34.70 82.0 Not Reported 4.92 SE 4.92 SE 6.49 S No 0.000 No Precipitation 04/15/2019 04:18 PM 04/15/2019 04:23 PM 0.000 0.000 0.000 0.000 0.000 Not Reported Not Reported
04/18/2019 07:30 AM 41.54 39.74 37.40 70.34 34.70 84.0 Not Reported 6.04 SE 6.49 SE 6.49 SE No 0.000 No Precipitation 04/15/2019 04:18 PM 04/15/2019 04:23 PM 0.000 0.000 0.000 0.000 0.000 Not Reported Not Reported
04/18/2019 07:45 AM 41.90 39.74 37.04 70.34 34.70 82.0 Not Reported 4.03 SE 4.03 SE 6.26 SE No 0.000 No Precipitation 04/15/2019 04:18 PM 04/15/2019 04:23 PM 0.000 0.000 0.000 0.000 0.000 Not Reported Not Reported
04/18/2019 08:00 AM 43.88 41.18 38.12 70.34 36.32 80.0 Not Reported 5.82 SE 5.82 SE 6.71 SE No 0.000 No Precipitation 04/15/2019 04:18 PM 04/15/2019 04:23 PM 0.000 0.000 0.000 0.000 0.000 Not Reported Not Reported
04/18/2019 08:15 AM 44.96 42.08 39.02 70.34 36.32 79.0 Not Reported 4.47 S 4.25 S 6.04 SE No 0.000 No Precipitation 04/15/2019 04:18 PM 04/15/2019 04:23 PM 0.000 0.000 0.000 0.000 0.000 Not Reported Not Reported
04/18/2019 08:30 AM 45.86 42.80 39.56 70.34 39.38 78.0 Not Reported 6.04 SE 5.82 SE 6.71 SE No 0.000 No Precipitation 04/15/2019 04:18 PM 04/15/2019 04:23 PM 0.000 0.000 0.000 0.000 0.000 Not Reported Not Reported
04/18/2019 08:45 AM 47.12 43.52 39.92 70.34 41.18 75.0 Not Reported 6.26 SE 7.16 SE 7.83 SE No 0.000 No Precipitation 04/15/2019 04:18 PM 04/15/2019 04:23 PM 0.000 0.000 0.000 0.000 0.000 Not Reported Not Reported
04/18/2019 09:00 AM 49.28 45.32 41.18 70.34 41.36 73.0 Not Reported 4.25 SE 4.25 SE 5.82 SE No 0.000 No Precipitation 04/15/2019 04:18 PM 04/15/2019 04:23 PM 0.000 0.000 0.000 0.000 0.000 Not Reported Not Reported
04/18/2019 09:15 AM 51.44 46.40 41.54 70.34 41.36 68.0 Not Reported 2.68 E 1.79 E 3.58 SE No 0.000 No Precipitation 04/15/2019 04:18 PM 04/15/2019 04:23 PM 0.000 0.000 0.000 0.000 0.000 Not Reported Not Reported
04/18/2019 09:30 AM 53.96 47.66 41.36 70.34 41.36 62.0 Not Reported 1.34 NE 1.12 NE 1.79 NE No 0.000 No Precipitation 04/15/2019 04:18 PM 04/15/2019 04:23 PM 0.000 0.000 0.000 0.000 0.000 Not Reported Not Reported
04/18/2019 09:45 AM 54.86 48.02 41.36 70.34 41.36 59.0 Not Reported 1.34 N 2.46 N 1.57 NE No 0.000 No Precipitation 04/15/2019 04:18 PM 04/15/2019 04:23 PM 0.000 0.000 0.000 0.000 0.000 Not Reported Not Reported
04/18/2019 10:00 AM 56.48 48.74 41.36 70.34 41.36 57.0 Not Reported 0.67 NE 1.79 NE 1.79 NE No 0.000 No Precipitation 04/15/2019 04:18 PM 04/15/2019 04:23 PM 0.000 0.000 0.000 0.000 0.000 Not Reported Not Reported
04/18/2019 10:15 AM 55.94 48.74 41.72 70.34 41.36 58.0 Not Reported 2.24 NW 3.13 N 2.46 N No 0.000 No Precipitation 04/15/2019 04:18 PM 04/15/2019 04:23 PM 0.000 0.000 0.000 0.000 0.000 Not Reported Not Reported
04/18/2019 10:30 AM 56.12 48.74 41.54 70.34 41.36 57.0 Not Reported 3.36 N 2.91 N 4.92 NW No 0.000 No Precipitation 04/15/2019 04:18 PM 04/15/2019 04:23 PM 0.000 0.000 0.000 0.000 0.000 Not Reported Not Reported
04/18/2019 10:45 AM 57.02 49.10 41.54 70.34 41.36 55.0 Not Reported 4.92 NW 6.04 NW 5.59 N No 0.000 No Precipitation 04/15/2019 04:18 PM 04/15/2019 04:23 PM 0.000 0.000 0.000 0.000 0.000 Not Reported Not Reported
04/18/2019 11:00 AM 57.74 49.82 42.26 70.34 41.36 56.0 Not Reported 2.24 NW 2.91 NW 5.37 W No 0.000 No Precipitation 04/15/2019 04:18 PM 04/15/2019 04:23 PM 0.000 0.000 0.000 0.000 0.000 Not Reported Not Reported
04/18/2019 11:15 AM 58.46 50.18 42.26 70.34 41.36 54.0 Not Reported 3.13 W 2.46 N 5.82 NW No 0.000 No Precipitation 04/15/2019 04:18 PM 04/15/2019 04:23 PM 0.000 0.000 0.000 0.000 0.000 Not Reported Not Reported
04/18/2019 11:30 AM 58.82 50.36 42.44 70.34 41.36 54.0 Not Reported 2.46 N 4.03 N 4.03 N No 0.000 No Precipitation 04/15/2019 04:18 PM 04/15/2019 04:23 PM 0.000 0.000 0.000 0.000 0.000 Not Reported Not Reported
04/18/2019 11:45 AM 60.80 51.08 42.26 70.34 41.36 50.0 Not Reported 1.79 W 1.34 SW 4.92 NW No 0.000 No Precipitation 04/15/2019 04:18 PM 04/15/2019 04:23 PM 0.000 0.000 0.000 0.000 0.000 Not Reported Not Reported
04/18/2019 12:00 PM 60.44 51.08 42.44 70.34 41.36 51.0 Not Reported 3.80 N 4.70 N 4.70 N No 0.000 No Precipitation 04/15/2019 04:18 PM 04/15/2019 04:23 PM 0.000 0.000 0.000 0.000 0.000 Not Reported Not Reported
04/18/2019 12:15 PM 61.52 52.52 44.96 70.34 41.36 54.0 Not Reported 3.80 NE 2.46 NE 5.14 NE No 0.000 No Precipitation 04/15/2019 04:18 PM 04/15/2019 04:23 PM 0.000 0.000 0.000 0.000 0.000 Not Reported Not Reported
04/18/2019 12:30 PM 62.06 52.16 43.34 70.34 41.36 50.0 Not Reported 2.24 NE 2.01 E 4.03 NE No 0.000 No Precipitation 04/15/2019 04:18 PM 04/15/2019 04:23 PM 0.000 0.000 0.000 0.000 0.000 Not Reported Not Reported
04/18/2019 12:45 PM 63.14 52.16 42.08 70.34 41.36 46.0 Not Reported 2.24 NW 1.12 NE 5.82 N No 0.000 No Precipitation 04/15/2019 04:18 PM 04/15/2019 04:23 PM 0.000 0.000 0.000 0.000 0.000 Not Reported Not Reported
04/18/2019 01:00 PM 63.68 52.16 41.54 70.34 41.36 44.0 Not Reported 3.36 NE 3.13 N 5.59 N No 0.000 No Precipitation 04/15/2019 04:18 PM 04/15/2019 04:23 PM 0.000 0.000 0.000 0.000 0.000 Not Reported Not Reported
04/18/2019 01:15 PM 65.30 53.42 42.98 70.34 41.36 44.0 Not Reported 4.70 N 5.82 N 5.37 N No 0.000 No Precipitation 04/15/2019 04:18 PM 04/15/2019 04:23 PM 0.000 0.000 0.000 0.000 0.000 Not Reported Not Reported
04/18/2019 01:30 PM 66.56 53.60 42.08 70.34 41.36 40.0 Not Reported 5.14 N 3.58 N 6.49 N No 0.000 No Precipitation 04/15/2019 04:18 PM 04/15/2019 04:23 PM 0.000 0.000 0.000 0.000 0.000 Not Reported Not Reported
04/18/2019 01:45 PM 66.56 53.42 41.72 70.34 41.36 40.0 Not Reported 4.70 N 3.36 NE 6.04 N No 0.000 No Precipitation 04/15/2019 04:18 PM 04/15/2019 04:23 PM 0.000 0.000 0.000 0.000 0.000 Not Reported Not Reported
04/18/2019 02:00 PM 67.10 53.60 41.54 70.34 41.36 39.0 Not Reported 2.01 NE 1.12 NE 6.04 N No 0.000 No Precipitation 04/15/2019 04:18 PM 04/15/2019 04:23 PM 0.000 0.000 0.000 0.000 0.000 Not Reported Not Reported
04/18/2019 02:15 PM 69.26 54.14 40.64 70.34 41.36 35.0 Not Reported 1.79 SW 3.80 N 4.25 NW No 0.000 No Precipitation 04/15/2019 04:18 PM 04/15/2019 04:23 PM 0.000 0.000 0.000 0.000 0.000 Not Reported Not Reported
04/18/2019 02:30 PM 70.34 54.68 41.00 70.70 41.36 34.0 Not Reported 4.70 N 5.14 N 5.82 N No 0.000 No Precipitation 04/15/2019 04:18 PM 04/15/2019 04:23 PM 0.000 0.000 0.000 0.000 0.000 Not Reported Not Reported
04/18/2019 02:45 PM 70.52 55.40 42.44 70.70 41.36 36.0 Not Reported 2.68 NE 1.34 NE 4.70 NE No 0.000 No Precipitation 04/15/2019 04:18 PM 04/15/2019 04:23 PM 0.000 0.000 0.000 0.000 0.000 Not Reported Not Reported
04/18/2019 03:00 PM 71.06 56.48 44.78 71.42 41.36 38.0 Not Reported 5.82 N 5.59 NW 7.16 N No 0.000 No Precipitation 04/15/2019 04:18 PM 04/15/2019 04:23 PM 0.000 0.000 0.000 0.000 0.000 Not Reported Not Reported
04/18/2019 03:15 PM 72.50 56.12 42.44 72.68 41.36 34.0 Not Reported 3.13 NW 3.13 W 5.82 N No 0.000 No Precipitation 04/15/2019 04:18 PM 04/15/2019 04:23 PM 0.000 0.000 0.000 0.000 0.000 Not Reported Not Reported
04/18/2019 03:30 PM 73.04 56.48 42.98 73.94 41.36 33.0 Not Reported 3.13 N 2.91 N 4.92 N No 0.000 No Precipitation 04/15/2019 04:18 PM 04/15/2019 04:23 PM 0.000 0.000 0.000 0.000 0.000 Not Reported Not Reported
04/18/2019 03:45 PM 73.04 57.92 46.40 73.94 41.36 38.0 Not Reported 4.70 N 2.68 NE 6.49 N No 0.000 No Precipitation 04/15/2019 04:18 PM 04/15/2019 04:23 PM 0.000 0.000 0.000 0.000 0.000 Not Reported Not Reported
04/18/2019 04:00 PM 73.58 57.38 44.24 74.12 41.36 34.0 Not Reported 1.34 E 0.67 N 6.93 NW No 0.000 No Precipitation 04/15/2019 04:18 PM 04/15/2019 04:23 PM 0.000 0.000 0.000 0.000 0.000 Not Reported Not Reported
04/18/2019 04:15 PM 74.66 57.02 42.62 74.84 41.36 31.0 Not Reported 4.03 N 3.36 N 6.93 N No 0.000 No Precipitation 04/15/2019 04:18 PM 04/15/2019 04:23 PM 0.000 0.000 0.000 0.000 0.000 Not Reported Not Reported
04/18/2019 04:30 PM 74.66 57.56 43.70 75.02 41.36 32.0 Not Reported 6.26 N 5.14 N 7.16 N No 0.000 No Precipitation 04/15/2019 04:18 PM 04/15/2019 04:23 PM 0.000 0.000 0.000 0.000 0.000 Not Reported Not Reported
04/18/2019 04:45 PM 74.84 57.56 43.70 75.38 41.36 32.0 Not Reported 6.04 NE 6.49 N 6.71 N No 0.000 No Precipitation 04/15/2019 04:18 PM 04/15/2019 04:23 PM 0.000 0.000 0.000 0.000 0.000 Not Reported Not Reported
04/18/2019 05:00 PM 76.10 58.64 45.50 76.46 41.36 33.0 Not Reported 4.70 N 5.37 NE 6.04 N No 0.000 No Precipitation 04/15/2019 04:18 PM 04/15/2019 04:23 PM 0.000 0.000 0.000 0.000 0.000 Not Reported Not Reported
04/18/2019 05:15 PM 77.00 58.64 44.24 77.00 41.36 31.0 Not Reported 4.25 N 6.26 N 7.61 NW No 0.000 No Precipitation 04/15/2019 04:18 PM 04/15/2019 04:23 PM 0.000 0.000 0.000 0.000 0.000 Not Reported Not Reported
04/18/2019 05:30 PM 76.82 58.46 44.06 77.18 41.36 31.0 Not Reported 5.59 N 5.37 N 6.04 N No 0.000 No Precipitation 04/15/2019 04:18 PM 04/15/2019 04:23 PM 0.000 0.000 0.000 0.000 0.000 Not Reported Not Reported
04/18/2019 05:45 PM 77.54 58.28 42.98 78.08 41.36 29.0 Not Reported 4.25 NW 4.92 NW 5.37 N No 0.000 No Precipitation 04/15/2019 04:18 PM 04/15/2019 04:23 PM 0.000 0.000 0.000 0.000 0.000 Not Reported Not Reported
04/18/2019 06:00 PM 77.90 58.64 43.16 79.70 41.36 29.0 Not Reported 5.14 N 4.70 N 5.59 N No 0.000 No Precipitation 04/15/2019 04:18 PM 04/15/2019 04:23 PM 0.000 0.000 0.000 0.000 0.000 Not Reported Not Reported
04/18/2019 06:15 PM 77.90 58.64 43.34 79.70 41.36 29.0 Not Reported 4.25 N 4.92 N 5.37 NW No 0.000 No Precipitation 04/15/2019 04:18 PM 04/15/2019 04:23 PM 0.000 0.000 0.000 0.000 0.000 Not Reported Not Reported
04/18/2019 06:30 PM 77.54 58.46 43.34 79.70 41.36 29.0 Not Reported 4.03 N 2.91 N 6.93 N No 0.000 No Precipitation 04/15/2019 04:18 PM 04/15/2019 04:23 PM 0.000 0.000 0.000 0.000 0.000 Not Reported Not Reported
04/18/2019 06:45 PM 78.26 58.28 42.08 79.70 41.36 27.0 Not Reported 8.28 NW 5.59 NW 8.95 NW No 0.000 No Precipitation 04/15/2019 04:18 PM 04/15/2019 04:23 PM 0.000 0.000 0.000 0.000 0.000 Not Reported Not Reported
04/18/2019 07:00 PM 78.98 58.28 41.36 79.70 41.36 26.0 Not Reported 4.47 W 4.25 W 8.05 NW No 0.000 No Precipitation 04/15/2019 04:18 PM 04/15/2019 04:23 PM 0.000 0.000 0.000 0.000 0.000 Not Reported Not Reported
04/18/2019 07:15 PM 78.98 58.28 41.00 79.70 41.36 25.0 Not Reported 4.25 W 3.80 W 6.26 W No 0.000 No Precipitation 04/15/2019 04:18 PM 04/15/2019 04:23 PM 0.000 0.000 0.000 0.000 0.000 Not Reported Not Reported
04/18/2019 07:30 PM 78.98 58.64 42.08 79.70 41.36 26.0 Not Reported 3.58 W 3.36 W 4.70 W No 0.000 No Precipitation 04/15/2019 04:18 PM 04/15/2019 04:23 PM 0.000 0.000 0.000 0.000 0.000 Not Reported Not Reported
04/18/2019 07:45 PM 78.62 58.64 42.62 79.70 41.36 27.0 Not Reported 3.13 W 4.47 W 3.80 W No 0.000 No Precipitation 04/15/2019 04:18 PM 04/15/2019 04:23 PM 0.000 0.000 0.000 0.000 0.000 Not Reported Not Reported
04/18/2019 08:00 PM 77.18 59.36 46.22 79.70 41.36 33.0 Not Reported 3.80 W 4.25 W 4.25 W No 0.000 No Precipitation 04/15/2019 04:18 PM 04/15/2019 04:23 PM 0.000 0.000 0.000 0.000 0.000 Not Reported Not Reported
04/18/2019 08:15 PM 69.80 57.56 48.20 79.70 41.36 46.0 Not Reported 5.37 S 4.25 S 4.25 S No 0.000 No Precipitation 04/15/2019 04:18 PM 04/15/2019 04:23 PM 0.000 0.000 0.000 0.000 0.000 Not Reported Not Reported
04/18/2019 08:30 PM 68.54 56.30 46.58 79.70 41.36 45.0 Not Reported 6.71 S 7.16 S 7.16 S No 0.000 No Precipitation 04/15/2019 04:18 PM 04/15/2019 04:23 PM 0.000 0.000 0.000 0.000 0.000 Not Reported Not Reported
04/18/2019 08:45 PM 67.10 55.22 45.86 79.70 41.36 46.0 Not Reported 7.38 S 7.38 S 8.28 S No 0.000 No Precipitation 04/15/2019 04:18 PM 04/15/2019 04:23 PM 0.000 0.000 0.000 0.000 0.000 Not Reported Not Reported
04/18/2019 09:00 PM 66.56 53.96 43.34 79.70 41.36 43.0 Not Reported 8.72 SE 9.62 SE 10.96 S No 0.000 No Precipitation 04/15/2019 04:18 PM 04/15/2019 04:23 PM 0.000 0.000 0.000 0.000 0.000 Not Reported Not Reported
04/18/2019 09:15 PM 64.76 53.42 43.52 79.70 41.36 46.0 Not Reported 9.40 SE 9.40 S 10.29 S No 0.000 No Precipitation 04/15/2019 04:18 PM 04/15/2019 04:23 PM 0.000 0.000 0.000 0.000 0.000 Not Reported Not Reported
04/18/2019 09:30 PM 63.50 53.06 44.06 79.70 41.36 49.0 Not Reported 11.63 SE 11.86 SE 12.08 SE No 0.000 No Precipitation 04/15/2019 04:18 PM 04/15/2019 04:23 PM 0.000 0.000 0.000 0.000 0.000 Not Reported Not Reported
04/18/2019 09:45 PM 63.86 52.34 41.90 79.70 41.36 44.0 Not Reported 11.41 SE 12.08 SE 14.32 SE No 0.000 No Precipitation 04/15/2019 04:18 PM 04/15/2019 04:23 PM 0.000 0.000 0.000 0.000 0.000 Not Reported Not Reported
04/18/2019 10:00 PM 62.06 51.98 43.16 79.70 41.36 49.0 Not Reported 11.41 SE 12.30 SE 13.20 SE No 0.000 No Precipitation 04/15/2019 04:18 PM 04/15/2019 04:23 PM 0.000 0.000 0.000 0.000 0.000 Not Reported Not Reported
04/18/2019 10:15 PM 63.32 51.98 41.90 79.70 41.36 45.0 Not Reported 10.07 SE 10.29 SE 13.42 SE No 0.000 No Precipitation 04/15/2019 04:18 PM 04/15/2019 04:23 PM 0.000 0.000 0.000 0.000 0.000 Not Reported Not Reported
04/18/2019 10:30 PM 62.06 51.08 41.00 79.70 41.36 46.0 Not Reported 10.51 SE 10.96 SE 11.18 SE No 0.000 No Precipitation 04/15/2019 04:18 PM 04/15/2019 04:23 PM 0.000 0.000 0.000 0.000 0.000 Not Reported Not Reported
04/18/2019 10:45 PM 66.56 52.16 38.30 79.70 41.36 35.0 Not Reported 13.20 SE 10.96 SE 12.08 SE No 0.000 No Precipitation 04/15/2019 04:18 PM 04/15/2019 04:23 PM 0.000 0.000 0.000 0.000 0.000 Not Reported Not Reported
04/18/2019 11:00 PM 65.48 51.98 39.20 79.70 41.36 37.0 Not Reported 9.40 S 8.95 S 12.30 S No 0.000 No Precipitation 04/15/2019 04:18 PM 04/15/2019 04:23 PM 0.000 0.000 0.000 0.000 0.000 Not Reported Not Reported
04/18/2019 11:15 PM 64.94 51.80 39.38 79.70 41.36 38.0 Not Reported 11.18 S 12.75 S 13.87 S No 0.000 No Precipitation 04/15/2019 04:18 PM 04/15/2019 04:23 PM 0.000 0.000 0.000 0.000 0.000 Not Reported Not Reported
04/18/2019 11:30 PM 65.48 51.80 38.84 79.70 41.36 37.0 Not Reported 13.65 SE 13.20 SE 14.76 S No 0.000 No Precipitation 04/15/2019 04:18 PM 04/15/2019 04:23 PM 0.000 0.000 0.000 0.000 0.000 Not Reported Not Reported
04/18/2019 11:45 PM 65.12 51.80 39.02 79.70 41.36 38.0 Not Reported 13.20 SE 13.20 SE 15.43 SE No 0.000 No Precipitation 04/15/2019 04:18 PM 04/15/2019 04:23 PM 0.000 0.000 0.000 0.000 0.000 Not Reported Not Reported